createdAt,value
2023-04-25T00:01:50.898Z,126.85
2023-04-25T00:04:18.198Z,125.68
2023-04-25T00:06:44.674Z,123.13
2023-04-25T00:09:11.230Z,119.25
2023-04-25T00:11:37.800Z,112.78
2023-04-25T00:14:04.435Z,114.05
2023-04-25T00:16:30.897Z,113.03
2023-04-25T00:18:57.805Z,110.43
2023-04-25T00:21:24.353Z,108.10
2023-04-25T00:23:51.136Z,110.85
2023-04-25T00:26:17.817Z,105.25
2023-04-25T00:28:44.257Z,105.35
2023-04-25T00:31:10.723Z,102.65
2023-04-25T00:33:37.162Z,102.38
2023-04-25T00:36:03.520Z,101.00
2023-04-25T00:38:30.004Z,96.03
2023-04-25T00:40:56.448Z,94.13
2023-04-25T00:43:22.832Z,91.75
2023-04-25T00:45:49.384Z,91.78
2023-04-25T00:48:15.876Z,88.70
2023-04-25T00:50:42.244Z,86.43
2023-04-25T00:53:08.663Z,86.00
2023-04-25T00:55:35.161Z,82.28
2023-04-25T00:58:01.667Z,80.85
2023-04-25T01:00:28.150Z,81.15
2023-04-25T01:02:55.002Z,77.13
2023-04-25T01:05:22.312Z,78.65
2023-04-25T01:07:50.034Z,74.18
2023-04-25T01:10:16.962Z,78.43
2023-04-25T01:12:43.476Z,73.38
2023-04-25T01:15:09.979Z,72.43
2023-04-25T01:17:36.993Z,70.50
2023-04-25T01:20:04.332Z,69.57
2023-04-25T01:22:31.254Z,67.82
2023-04-25T01:24:57.818Z,65.53
2023-04-25T01:27:24.982Z,66.18
2023-04-25T01:29:51.790Z,63.30
2023-04-25T01:32:18.443Z,63.67
2023-04-25T01:34:45.542Z,62.72
2023-04-25T01:37:11.951Z,63.22
2023-04-25T01:39:38.682Z,56.25
2023-04-25T01:42:05.079Z,59.88
2023-04-25T01:44:31.720Z,60.85
2023-04-25T01:46:58.151Z,56.55
2023-04-25T01:49:24.772Z,56.95
2023-04-25T01:51:51.115Z,56.88
2023-04-25T01:54:17.959Z,53.33
2023-04-25T01:56:44.337Z,53.63
2023-04-25T01:59:10.717Z,54.08
2023-04-25T02:01:37.221Z,52.17
2023-04-25T02:04:04.205Z,50.20
2023-04-25T02:06:30.657Z,50.92
2023-04-25T02:08:57.041Z,50.38
2023-04-25T02:11:23.719Z,48.72
2023-04-25T02:13:50.569Z,50.08
2023-04-25T02:16:17.201Z,46.63
2023-04-25T02:18:43.917Z,45.53
2023-04-25T02:21:10.459Z,45.90
2023-04-25T02:23:36.826Z,46.55
2023-04-25T02:26:03.671Z,46.15
2023-04-25T02:28:30.536Z,45.75
2023-04-25T02:30:57.223Z,44.67
2023-04-25T02:33:23.726Z,41.53
2023-04-25T02:35:50.447Z,42.80
2023-04-25T02:38:17.134Z,40.60
2023-04-25T02:40:43.697Z,39.83
2023-04-25T02:43:10.402Z,39.53
2023-04-25T02:45:37.394Z,39.65
2023-04-25T02:48:03.848Z,43.13
2023-04-25T02:50:30.606Z,37.85
2023-04-25T02:52:57.686Z,37.75
2023-04-25T02:55:26.254Z,38.58
2023-04-25T02:57:54.554Z,37.00
2023-04-25T03:00:21.464Z,37.50
2023-04-25T03:02:48.012Z,35.25
2023-04-25T03:05:14.600Z,34.55
2023-04-25T03:07:40.926Z,35.08
2023-04-25T03:10:07.662Z,34.10
2023-04-25T03:12:34.213Z,35.22
2023-04-25T03:15:00.629Z,32.35
2023-04-25T03:17:27.518Z,33.83
2023-04-25T03:19:54.099Z,33.70
2023-04-25T03:22:20.653Z,32.97
2023-04-25T03:24:47.167Z,30.95
2023-04-25T03:27:13.703Z,31.50
2023-04-25T03:29:40.394Z,31.23
2023-04-25T03:32:07.281Z,31.02
2023-04-25T03:34:34.524Z,30.88
2023-04-25T03:37:01.046Z,31.55
2023-04-25T03:39:27.439Z,29.00
2023-04-25T03:41:54.408Z,29.40
2023-04-25T03:44:20.823Z,26.95
2023-04-25T03:46:47.274Z,29.20
2023-04-25T03:49:13.873Z,27.45
2023-04-25T03:51:40.241Z,27.63
2023-04-25T03:54:06.548Z,25.45
2023-04-25T03:56:33.234Z,25.33
2023-04-25T03:58:59.705Z,25.90
2023-04-25T04:01:26.232Z,24.50
2023-04-25T04:03:53.121Z,25.83
2023-04-25T04:06:20.157Z,25.00
2023-04-25T04:08:46.557Z,23.60
2023-04-25T04:11:13.059Z,24.23
2023-04-25T04:13:39.846Z,24.70
2023-04-25T04:16:06.232Z,22.98
2023-04-25T04:18:32.670Z,23.15
2023-04-25T04:20:59.375Z,24.42
2023-04-25T04:23:25.806Z,23.52
2023-04-25T04:25:52.352Z,21.85
2023-04-25T04:28:18.752Z,22.45
2023-04-25T04:30:46.546Z,22.23
2023-04-25T04:33:13.101Z,20.85
2023-04-25T04:35:39.916Z,20.08
2023-04-25T04:38:06.485Z,22.45
2023-04-25T04:40:33.316Z,21.63
2023-04-25T04:43:00.047Z,19.67
2023-04-25T04:45:26.779Z,21.23
2023-04-25T04:47:53.262Z,19.92
2023-04-25T04:50:20.229Z,19.45
2023-04-25T04:52:46.761Z,20.70
2023-04-25T04:55:13.260Z,19.20
2023-04-25T04:57:39.913Z,18.77
2023-04-25T05:00:06.336Z,19.42
2023-04-25T05:02:33.298Z,18.27
2023-04-25T05:04:59.823Z,19.17
2023-04-25T05:07:26.900Z,18.20
2023-04-25T05:09:53.256Z,19.65
2023-04-25T05:12:19.647Z,19.20
2023-04-25T05:14:46.073Z,18.23
2023-04-25T05:17:12.459Z,17.25
2023-04-25T05:19:38.976Z,18.70
2023-04-25T05:22:05.382Z,17.55
2023-04-25T05:24:31.730Z,18.20
2023-04-25T05:26:58.134Z,16.98
2023-04-25T05:29:24.659Z,18.63
2023-04-25T05:31:51.109Z,17.45
2023-04-25T05:34:17.938Z,15.30
2023-04-25T05:36:44.301Z,14.90
2023-04-25T05:39:10.706Z,15.98
2023-04-25T05:41:37.138Z,15.68
2023-04-25T05:44:03.607Z,16.90
2023-04-25T05:46:30.525Z,14.40
2023-04-25T05:48:57.349Z,15.18
2023-04-25T05:51:24.043Z,16.38
2023-04-25T05:53:51.235Z,16.67
2023-04-25T05:56:18.139Z,14.85
2023-04-25T05:58:45.651Z,12.95
2023-04-25T06:01:12.276Z,15.32
2023-04-25T06:03:39.127Z,13.85
2023-04-25T06:06:06.718Z,12.38
2023-04-25T06:08:33.241Z,14.93
2023-04-25T06:11:00.177Z,13.05
2023-04-25T06:13:26.597Z,14.20
2023-04-25T06:15:53.196Z,13.15
2023-04-25T06:18:19.897Z,12.00
2023-04-25T06:20:46.779Z,15.77
2023-04-25T06:23:13.320Z,13.50
2023-04-25T06:25:40.044Z,16.13
2023-04-25T06:28:07.312Z,11.57
2023-04-25T06:30:33.688Z,12.55
2023-04-25T06:33:00.111Z,12.20
2023-04-25T06:35:28.206Z,14.07
2023-04-25T06:37:54.956Z,14.70
2023-04-25T06:40:21.629Z,13.07
2023-04-25T06:42:48.426Z,12.93
2023-04-25T06:45:14.741Z,13.50
2023-04-25T06:47:42.433Z,14.88
2023-04-25T06:50:09.349Z,16.50
2023-04-25T06:52:35.823Z,14.75
2023-04-25T06:55:02.361Z,14.13
2023-04-25T06:57:29.275Z,14.32
2023-04-25T06:59:57.402Z,14.38
2023-04-25T07:02:24.448Z,15.13
2023-04-25T07:04:51.045Z,15.50
2023-04-25T07:07:17.699Z,14.32
2023-04-25T07:09:44.243Z,13.18
2023-04-25T07:12:10.979Z,14.65
2023-04-25T07:14:37.544Z,14.20
2023-04-25T07:17:04.064Z,14.82
2023-04-25T07:19:30.852Z,16.38
2023-04-25T07:21:57.329Z,13.65
2023-04-25T07:24:23.797Z,13.20
2023-04-25T07:26:50.364Z,14.48
2023-04-25T07:29:17.031Z,13.73
2023-04-25T07:31:43.717Z,14.38
2023-04-25T07:34:11.338Z,13.48
2023-04-25T07:36:37.745Z,13.05
2023-04-25T07:39:04.937Z,13.07
2023-04-25T07:41:31.311Z,13.55
2023-04-25T07:43:57.756Z,12.60
2023-04-25T07:46:24.332Z,13.60
2023-04-25T07:48:51.562Z,13.15
2023-04-25T07:51:18.354Z,12.82
2023-04-25T07:53:44.819Z,12.88
2023-04-25T07:56:11.550Z,12.85
2023-04-25T07:58:37.976Z,13.68
2023-04-25T08:01:04.791Z,13.77
2023-04-25T08:03:31.787Z,13.80
2023-04-25T08:05:58.959Z,13.13
2023-04-25T08:08:25.459Z,12.80
2023-04-25T08:10:51.858Z,13.88
2023-04-25T08:13:18.776Z,13.05
2023-04-25T08:15:45.230Z,12.52
2023-04-25T08:18:11.691Z,12.73
2023-04-25T08:20:38.186Z,13.43
2023-04-25T08:23:04.671Z,11.95
2023-04-25T08:25:31.251Z,13.05
2023-04-25T08:27:57.985Z,13.50
2023-04-25T08:30:25.655Z,12.43
2023-04-25T08:32:52.368Z,12.73
2023-04-25T08:35:18.838Z,12.63
2023-04-25T08:37:45.623Z,13.57
2023-04-25T08:40:12.271Z,13.00
2023-04-25T08:42:39.007Z,13.20
2023-04-25T08:45:07.039Z,11.77
2023-04-25T08:47:33.897Z,12.90
2023-04-25T08:50:00.391Z,13.38
2023-04-25T08:52:27.235Z,12.15
2023-04-25T08:54:53.619Z,13.07
2023-04-25T08:57:20.157Z,10.90
2023-04-25T08:59:47.037Z,11.88
2023-04-25T09:02:13.906Z,12.35
2023-04-25T09:04:40.388Z,11.45
2023-04-25T09:07:06.713Z,11.68
2023-04-25T09:09:33.269Z,11.93
2023-04-25T09:11:59.672Z,11.95
2023-04-25T09:14:26.227Z,14.35
2023-04-25T09:16:52.881Z,13.80
2023-04-25T09:19:19.317Z,13.20
2023-04-25T09:21:46.664Z,14.27
2023-04-25T09:24:13.224Z,11.73
2023-04-25T09:26:40.479Z,13.02
2023-04-25T09:29:06.904Z,12.80
2023-04-25T09:31:33.260Z,11.55
2023-04-25T09:33:59.900Z,12.18
2023-04-25T09:36:27.660Z,12.65
2023-04-25T09:38:54.213Z,13.02
2023-04-25T09:41:20.838Z,14.40
2023-04-25T09:43:47.752Z,13.85
2023-04-25T09:46:14.316Z,15.45
2023-04-25T09:48:40.739Z,13.05
2023-04-25T09:51:07.246Z,13.68
2023-04-25T09:53:34.547Z,14.38
2023-04-25T09:56:01.158Z,12.68
2023-04-25T09:58:28.342Z,12.07
2023-04-25T10:00:55.337Z,13.65
2023-04-25T10:03:22.489Z,14.88
2023-04-25T10:05:48.958Z,14.18
2023-04-25T10:08:16.343Z,12.73
2023-04-25T10:10:43.023Z,13.00
2023-04-25T10:13:09.852Z,15.43
2023-04-25T10:15:39.655Z,13.75
2023-04-25T10:18:07.538Z,14.93
2023-04-25T10:20:34.022Z,13.98
2023-04-25T10:23:00.512Z,14.52
2023-04-25T10:25:27.562Z,13.68
2023-04-25T10:27:54.223Z,13.00
2023-04-25T10:30:20.791Z,12.82
2023-04-25T10:32:47.187Z,13.10
2023-04-25T10:35:13.697Z,12.70
2023-04-25T10:37:40.857Z,11.98
2023-04-25T10:40:07.335Z,11.65
2023-04-25T10:42:33.957Z,12.32
2023-04-25T10:45:00.560Z,11.27
2023-04-25T10:47:27.293Z,12.23
2023-04-25T10:49:53.709Z,13.88
2023-04-25T10:52:20.050Z,11.50
2023-04-25T10:54:46.847Z,11.25
2023-04-25T10:57:13.403Z,10.73
2023-04-25T10:59:39.723Z,11.90
2023-04-25T11:02:06.331Z,11.23
2023-04-25T11:04:33.444Z,11.73
2023-04-25T11:07:06.518Z,8.75
2023-04-25T11:09:33.771Z,10.15
2023-04-25T11:12:00.795Z,11.93
2023-04-25T11:14:27.313Z,10.43
2023-04-25T11:16:53.652Z,10.70
2023-04-25T11:19:20.457Z,9.77
2023-04-25T11:21:47.134Z,9.70
2023-04-25T11:24:13.604Z,9.10
2023-04-25T11:32:13.261Z,9.80
2023-04-25T11:34:40.588Z,8.77
2023-04-25T11:37:07.708Z,9.60
2023-04-25T11:39:34.112Z,11.35
2023-04-25T11:42:01.219Z,12.40
2023-04-25T11:44:29.107Z,11.82
2023-04-25T11:46:55.477Z,12.00
2023-04-25T11:49:22.178Z,9.77
2023-04-25T11:51:48.550Z,9.10
2023-04-25T11:54:15.848Z,8.75
2023-04-25T11:56:42.572Z,9.05
2023-04-25T11:59:09.421Z,9.65
2023-04-25T12:01:36.245Z,14.23
2023-04-25T12:04:03.006Z,13.43
2023-04-25T12:06:31.542Z,15.07
2023-04-25T12:08:58.070Z,18.63
2023-04-25T12:11:24.663Z,15.48
2023-04-25T12:13:51.540Z,15.23
2023-04-25T12:16:18.605Z,18.25
2023-04-25T12:18:45.256Z,17.75
2023-04-25T12:21:11.849Z,20.42
2023-04-25T12:26:22.743Z,15.20
2023-04-25T12:28:49.363Z,16.83
2023-04-25T12:31:15.994Z,15.23
2023-04-25T12:33:42.436Z,13.75
2023-04-25T12:36:08.796Z,16.27
2023-04-25T12:38:35.486Z,16.65
2023-04-25T12:41:01.935Z,13.50
2023-04-25T12:43:28.738Z,16.05
2023-04-25T12:45:55.179Z,15.48
2023-04-25T12:48:21.968Z,17.42
2023-04-25T12:50:48.666Z,14.43
2023-04-25T12:53:15.404Z,17.67
2023-04-25T12:55:42.184Z,13.65
2023-04-25T12:58:08.682Z,12.38
2023-04-25T13:00:35.186Z,14.65
2023-04-25T13:03:02.180Z,13.25
2023-04-25T13:05:29.019Z,16.25
2023-04-25T13:07:55.373Z,14.00
2023-04-25T13:10:22.075Z,13.45
2023-04-25T13:12:48.792Z,13.95
2023-04-25T13:15:15.446Z,16.05
2023-04-25T13:17:42.223Z,13.68
2023-04-25T13:20:09.190Z,12.65
2023-04-25T13:22:35.528Z,15.60
2023-04-25T13:25:01.962Z,13.30
2023-04-25T13:27:28.390Z,11.45
2023-04-25T13:29:54.909Z,14.60
2023-04-25T13:32:21.426Z,11.10
2023-04-25T13:34:47.943Z,13.63
2023-04-25T13:37:14.426Z,11.20
2023-04-25T13:39:41.282Z,11.15
2023-04-25T13:42:07.585Z,14.57
2023-04-25T13:44:34.336Z,12.77
2023-04-25T13:47:01.090Z,10.73
2023-04-25T13:49:27.578Z,14.38
2023-04-25T13:51:53.891Z,10.98
2023-04-25T13:54:20.478Z,12.63
2023-04-25T13:56:46.926Z,14.07
2023-04-25T13:59:13.266Z,15.05
2023-04-25T14:01:39.640Z,17.30
2023-04-25T14:04:06.267Z,15.35
2023-04-25T14:06:32.746Z,13.32
2023-04-25T14:08:59.343Z,16.88
2023-04-25T14:11:25.751Z,18.98
2023-04-25T14:13:53.196Z,16.23
2023-04-25T14:16:19.896Z,22.27
2023-04-25T14:18:47.428Z,16.65
2023-04-25T14:21:13.824Z,17.33
2023-04-25T14:23:40.412Z,17.63
2023-04-25T14:26:06.829Z,17.83
2023-04-25T14:28:33.231Z,19.17
2023-04-25T14:30:59.729Z,15.32
2023-04-25T14:33:26.247Z,18.60
2023-04-25T14:35:52.698Z,15.55
2023-04-25T14:38:19.015Z,16.17
2023-04-25T14:40:45.436Z,15.27
2023-04-25T14:43:11.804Z,15.15
2023-04-25T14:45:38.131Z,15.13
2023-04-25T14:48:04.665Z,17.67
2023-04-25T14:50:31.337Z,18.70
2023-04-25T14:52:57.745Z,14.02
2023-04-25T14:55:24.224Z,14.80
2023-04-25T14:57:50.702Z,13.82
2023-04-25T15:00:17.768Z,17.08
2023-04-25T15:02:44.283Z,15.43
2023-04-25T15:05:10.989Z,16.20
2023-04-25T15:07:37.673Z,12.98
2023-04-25T15:10:04.035Z,10.13
2023-04-25T15:12:30.668Z,13.57
2023-04-25T15:14:57.086Z,11.23
2023-04-25T15:17:23.580Z,12.38
2023-04-25T15:19:49.916Z,13.25
2023-04-25T15:22:16.238Z,11.07
2023-04-25T15:24:42.817Z,14.15
2023-04-25T15:27:09.258Z,11.65
2023-04-25T15:29:35.567Z,10.63
2023-04-25T15:32:02.164Z,11.57
2023-04-25T15:34:28.639Z,10.70
2023-04-25T15:36:55.102Z,10.88
2023-04-25T15:39:21.533Z,10.00
2023-04-25T15:41:47.965Z,10.90
2023-04-25T15:44:14.278Z,9.77
2023-04-25T15:46:40.734Z,9.82
2023-04-25T15:49:07.173Z,11.38
2023-04-25T15:51:33.470Z,11.88
2023-04-25T15:53:59.748Z,11.77
2023-04-25T15:56:26.633Z,11.13
2023-04-25T15:58:52.936Z,13.00
2023-04-25T16:01:19.595Z,9.60
2023-04-25T16:03:46.417Z,9.75
2023-04-25T16:06:13.302Z,9.77
2023-04-25T16:08:39.910Z,9.40
2023-04-25T16:11:06.676Z,8.43
2023-04-25T16:13:33.209Z,10.73
2023-04-25T16:15:59.733Z,11.68
2023-04-25T16:18:26.249Z,12.88
2023-04-25T16:20:52.791Z,9.98
2023-04-25T16:23:19.382Z,10.63
2023-04-25T16:25:46.879Z,8.43
2023-04-25T16:28:13.214Z,8.63
2023-04-25T16:30:39.610Z,9.27
2023-04-25T16:33:06.729Z,8.00
2023-04-25T16:35:33.742Z,8.98
2023-04-25T16:38:00.537Z,9.45
2023-04-25T16:40:28.730Z,9.02
2023-04-25T16:42:55.292Z,163.05
2023-04-25T16:45:21.660Z,201.50
2023-04-25T16:47:48.429Z,165.70
2023-04-25T16:50:15.171Z,144.93
2023-04-25T16:52:43.746Z,138.77
2023-04-25T16:55:11.217Z,123.90
2023-04-25T16:57:38.055Z,118.15
2023-04-25T17:00:04.395Z,112.93
2023-04-25T17:02:30.964Z,111.68
2023-04-25T17:04:57.457Z,98.60
2023-04-25T17:07:23.980Z,85.25
2023-04-25T17:09:50.347Z,80.95
2023-04-25T17:12:16.817Z,174.63
2023-04-25T17:14:43.213Z,277.13
2023-04-25T17:17:09.739Z,338.73
2023-04-25T17:19:36.262Z,451.77
2023-04-25T17:22:02.658Z,366.70
2023-04-25T17:24:29.018Z,345.63
2023-04-25T17:26:55.457Z,295.40
2023-04-25T17:29:21.887Z,261.80
2023-04-25T17:31:48.267Z,234.70
2023-04-25T17:34:14.639Z,225.07
2023-04-25T17:36:40.999Z,336.08
2023-04-25T17:39:07.781Z,400.45
2023-04-25T17:41:34.261Z,357.80
2023-04-25T17:44:00.717Z,309.50
2023-04-25T17:46:27.227Z,284.48
2023-04-25T17:48:54.415Z,275.17
2023-04-25T17:51:21.114Z,270.58
2023-04-25T17:53:47.570Z,235.93
2023-04-25T17:56:25.925Z,220.02
2023-04-25T17:58:53.235Z,205.57
2023-04-25T18:01:19.897Z,196.85
2023-04-25T18:03:46.526Z,188.48
2023-04-25T18:06:13.315Z,350.00
2023-04-25T18:08:39.993Z,294.77
2023-04-25T18:11:06.798Z,262.63
2023-04-25T18:13:33.160Z,243.80
2023-04-25T18:16:00.249Z,224.85
2023-04-25T18:18:26.662Z,224.13
2023-04-25T18:20:53.258Z,200.70
2023-04-25T18:23:19.816Z,191.48
2023-04-25T18:25:46.445Z,185.70
2023-04-25T18:28:12.857Z,172.05
2023-04-25T18:30:39.370Z,164.63
2023-04-25T18:33:06.073Z,152.13
2023-04-25T18:35:32.528Z,160.32
2023-04-25T18:37:59.246Z,375.73
2023-04-25T18:40:25.644Z,328.52
2023-04-25T18:42:52.088Z,309.67
2023-04-25T18:45:26.556Z,297.65
2023-04-25T18:47:53.377Z,288.95
2023-04-25T18:50:19.919Z,288.92
2023-04-25T18:52:46.285Z,277.83
2023-04-25T18:55:12.696Z,277.33
2023-04-25T18:57:39.144Z,274.95
2023-04-25T19:00:05.545Z,258.88
2023-04-25T19:02:32.024Z,258.73
2023-04-25T19:04:58.474Z,250.38
2023-04-25T19:07:24.930Z,251.65
2023-04-25T19:09:51.356Z,253.93
2023-04-25T19:12:17.964Z,238.50
2023-04-25T19:14:44.521Z,702.13
2023-04-25T19:17:12.279Z,526.10
2023-04-25T19:19:39.268Z,460.42
2023-04-25T19:22:06.181Z,447.20
2023-04-25T19:24:34.357Z,480.17
2023-04-25T19:27:01.129Z,492.20
2023-04-25T19:29:28.747Z,482.20
2023-04-25T19:31:55.324Z,470.45
2023-04-25T19:34:21.710Z,466.70
2023-04-25T19:36:48.346Z,455.30
2023-04-25T19:39:15.399Z,449.60
2023-04-25T19:41:41.909Z,435.23
2023-04-25T19:44:08.654Z,438.73
2023-04-25T19:46:35.578Z,596.60
2023-04-25T19:49:03.134Z,695.30
2023-04-25T19:51:31.406Z,529.25
2023-04-25T19:53:57.843Z,509.27
2023-04-25T19:56:24.135Z,500.10
2023-04-25T19:58:51.302Z,483.98
2023-04-25T20:01:17.965Z,485.45
2023-04-25T20:03:44.597Z,514.53
2023-04-25T20:06:11.269Z,511.63
2023-04-25T20:08:38.107Z,510.50
2023-04-25T20:11:04.479Z,697.35
2023-04-25T20:13:30.827Z,631.40
2023-04-25T20:15:57.352Z,625.67
2023-04-25T20:18:23.667Z,612.55
2023-04-25T20:20:50.090Z,594.90
2023-04-25T20:23:16.726Z,595.08
2023-04-25T20:25:43.194Z,578.92
2023-04-25T20:28:09.707Z,569.10
2023-04-25T20:30:36.094Z,560.72
2023-04-25T20:33:02.570Z,713.45
2023-04-25T20:35:29.271Z,693.70
2023-04-25T20:37:55.606Z,595.55
2023-04-25T20:40:22.027Z,623.72
2023-04-25T20:42:48.726Z,600.30
2023-04-25T20:45:15.273Z,550.55
2023-04-25T20:47:43.173Z,536.45
2023-04-25T20:50:09.741Z,532.58
2023-04-25T20:52:36.516Z,516.83
2023-04-25T20:55:03.333Z,511.00
2023-04-25T20:57:30.788Z,505.42
2023-04-25T20:59:57.606Z,482.42
2023-04-25T21:02:24.119Z,483.85
2023-04-25T21:04:50.972Z,476.23
2023-04-25T21:07:17.576Z,486.40
2023-04-25T21:09:44.085Z,1146.95
2023-04-25T21:12:10.392Z,775.33
2023-04-25T21:14:36.819Z,723.30
2023-04-25T21:17:03.168Z,651.60
2023-04-25T21:19:29.874Z,641.50
2023-04-25T21:21:56.452Z,607.42
2023-04-25T21:24:23.149Z,907.47
2023-04-25T21:26:49.748Z,1006.05
2023-04-25T21:29:16.521Z,807.63
2023-04-25T21:31:43.115Z,753.65
2023-04-25T21:34:09.643Z,715.20
2023-04-25T21:36:36.130Z,687.15
2023-04-25T21:39:02.491Z,678.63
2023-04-25T21:41:28.877Z,666.13
2023-04-25T21:43:55.569Z,656.75
2023-04-25T21:46:23.708Z,1008.75
2023-04-25T21:48:50.724Z,844.78
2023-04-25T21:51:17.443Z,797.10
2023-04-25T21:53:43.788Z,757.75
2023-04-25T21:56:11.105Z,727.35
2023-04-25T21:58:37.837Z,701.10
2023-04-25T22:01:04.236Z,694.25
2023-04-25T22:03:31.330Z,680.35
2023-04-25T22:05:57.860Z,673.80
2023-04-25T22:08:24.299Z,664.65
2023-04-25T22:10:50.734Z,652.88
2023-04-25T22:13:17.298Z,643.88
2023-04-25T22:15:43.689Z,745.22
2023-04-25T22:18:10.311Z,884.67
2023-04-25T22:20:36.806Z,748.78
2023-04-25T22:23:03.322Z,728.17
2023-04-25T22:25:30.771Z,693.33
2023-04-25T22:27:57.426Z,675.47
2023-04-25T22:30:23.803Z,664.63
2023-04-25T22:32:50.257Z,664.80
2023-04-25T22:35:16.888Z,646.47
2023-04-25T22:37:43.179Z,642.63
2023-04-25T22:40:09.535Z,623.70
2023-04-25T22:42:35.958Z,620.45
2023-04-25T22:45:02.648Z,612.53
2023-04-25T22:47:30.130Z,599.85
2023-04-25T22:49:56.671Z,600.80
2023-04-25T22:52:23.069Z,588.28
2023-04-25T22:57:40.629Z,572.78
2023-04-25T23:00:06.989Z,563.47
2023-04-25T23:02:34.172Z,561.47
2023-04-25T23:05:00.638Z,558.50
2023-04-25T23:07:27.368Z,548.40
2023-04-25T23:09:54.305Z,545.53
2023-04-25T23:12:20.665Z,537.72
2023-04-25T23:14:47.306Z,524.40
2023-04-25T23:17:13.647Z,520.75
2023-04-25T23:19:40.296Z,509.30
2023-04-25T23:22:06.732Z,507.33
2023-04-25T23:24:33.058Z,500.30
2023-04-25T23:26:59.400Z,500.08
2023-04-25T23:29:25.859Z,496.20
2023-04-25T23:31:52.665Z,479.30
2023-04-25T23:34:18.995Z,464.45
2023-04-25T23:36:45.655Z,452.85
2023-04-25T23:39:12.007Z,468.45
2023-04-25T23:41:38.359Z,460.17
2023-04-25T23:44:04.731Z,453.15
2023-04-25T23:46:31.251Z,436.23
2023-04-25T23:48:57.696Z,437.65
2023-04-25T23:51:24.138Z,436.98
2023-04-25T23:53:50.474Z,427.27
2023-04-25T23:56:16.856Z,421.05
2023-04-25T23:58:44.005Z,421.48
